Annandale, New York
Current Conditions -  °F | °C
As of 9:53 AM on Friday 19 Dec 2014 (Local Time) from KPOU Reporting Station
Overcast Overcast  
Wind Chill: 29°   Ceiling: 4300
Heat Index: 35°   Visibility: 10mi
Dew Point: 20°   Wind: 7mph
Humidity: 54%   Direction: 300°WNW
Pressure: 30.06"   Gusts: NA
Location:  42.0124°N, 73.8998°W
Report Text: KPOU 191453Z 30006KT 10SM OVC043 02/M07 A3006 RMK AO2 SLP177 T00171067 51023
Loading
Personal Weather Stations






























Interactive Weather Map New forecast layout! Learn more

10-Day Weather Forecast

Advertisements
Track Severe Weather on mobile